• Join FlightAware (Why Join?)
  • Login
  • US Flag 
10:21PM EDT


 

Airport Tracker/Info


-or-


 

Live Flight TrackerFlight Track Log ✈ N613CC ✈ 01-Mar-2012 ✈ KORL - F45

Flight Track Log - Related Links

Times and Time Zones

All times are in EST time to prevent confusion due to time zone crossing. See the N613CC flight status page for this flight to view local times or setup timezone preferences in your user account.

Time Position Orientation Groundspeed Altitude Reporting Facility
EST Latitude Longitude Course Direction KTS MPH feet Rate Location/Type
12:55AM 28.5500 -81.3333 90° East 66 76 1,100  Level Orlando TRACON
12:55AM 28.5500 -81.3167 24° Northeast 73 84 1,300 300 Climbing Orlando TRACON
12:56AM 28.5833 -81.3000 90° East 101 116 1,600 180 Climbing Orlando TRACON
12:57AM 28.5833 -81.2667 111° Southeast 133 153 1,700 300 Climbing Orlando TRACON
12:58AM 28.5667 -81.2167 120° Southeast 132 152 2,300 540 Climbing Orlando TRACON
12:59AM 28.5500 -81.1833 120° Southeast 140 161 2,800 600 Climbing Orlando TRACON
01:00AM 28.5333 -81.1500 111° Southeast 139 160 3,500 600 Climbing Orlando TRACON
01:01AM 28.5167 -81.1000 120° Southeast 137 158 4,100 600 Climbing Orlando TRACON
01:02AM 28.5000 -81.0667 156° South 134 154 4,800 600 Climbing Orlando TRACON
01:03AM 28.4667 -81.0500 139° Southeast 124 143 5,400 600 Climbing Orlando TRACON
01:04AM 28.4500 -81.0333 180° South 118 136 6,100 300 Climbing Orlando TRACON
01:05AM 28.4000 -81.0333 156° South 134 154 6,100 -60 Level Orlando TRACON
01:06AM 28.3667 -81.0167 180° South 148 170 6,000  Descending Orlando TRACON
01:07AM 28.3167 -81.0167 156° South 150 173 6,100  Climbing Orlando TRACON
01:08AM 28.2833 -81.0000 180° South 148 170 6,100  Level Orlando TRACON
01:09AM 28.2500 -81.0000 164° South 150 173 6,100  Level Orlando TRACON
01:10AM 28.2000 -80.9833 180° South 153 176 6,100  Level Orlando TRACON
01:11AM 28.1667 -80.9833 164° South 153 176 6,100  Level Orlando TRACON
01:12AM 28.1167 -80.9667 180° South 151 174 6,100  Level Orlando TRACON
01:13AM 28.0833 -80.9667 164° South 153 176 6,100 -60 Level Orlando TRACON
01:14AM 28.0333 -80.9500 178° South 153 176 6,000 -120 Descending Orlando TRACON
01:22AM 27.7253 -80.9353 148° Southeast  Level FlightAware Approximate
01:23AM 27.6919 -80.9113 148° Southeast  Level FlightAware Approximate
01:24AM 27.6584 -80.8873 148° Southeast  Level FlightAware Approximate
01:25AM 27.6250 -80.8632 148° Southeast  Level FlightAware Approximate
01:26AM 27.5915 -80.8392 148° Southeast  Level FlightAware Approximate
01:27AM 27.5580 -80.8152 148° Southeast  Level FlightAware Approximate
01:28AM 27.5245 -80.7913 148° Southeast  Level FlightAware Approximate
01:29AM 27.4911 -80.7673 148° Southeast  Level FlightAware Approximate
01:30AM 27.4576 -80.7433 148° Southeast  Level FlightAware Approximate
01:31AM 27.4241 -80.7194 148° Southeast  Level FlightAware Approximate
01:32AM 27.3906 -80.6955 148° Southeast  Level FlightAware Approximate
01:33AM 27.3571 -80.6716 148° Southeast  Level FlightAware Approximate
01:34AM 27.3236 -80.6477 148° Southeast  Level FlightAware Approximate
01:35AM 27.2901 -80.6238 148° Southeast  Level FlightAware Approximate
01:36AM 27.2566 -80.6000 148° Southeast  Level FlightAware Approximate
01:37AM 27.2231 -80.5761 148° Southeast  Level FlightAware Approximate
01:38AM 27.1896 -80.5523 148° Southeast  Level FlightAware Approximate
01:39AM 27.1560 -80.5284 148° Southeast  Level FlightAware Approximate
01:40AM 27.1225 -80.5046 148° Southeast  Level FlightAware Approximate
01:41AM 27.0890 -80.4809 148° Southeast  Level FlightAware Approximate
01:42AM 27.0555 -80.4571 148° Southeast  Level FlightAware Approximate
01:43AM 27.0219 -80.4333 148° Southeast  Level FlightAware Approximate
01:44AM 26.9884 -80.4096 148° Southeast  Level FlightAware Approximate
01:45AM 26.9548 -80.3858 148° Southeast  Level FlightAware Approximate
01:46AM 26.9213 -80.3621 148° Southeast  Level FlightAware Approximate
01:47AM 26.8877 -80.3384 148° Southeast  Level FlightAware Approximate
01:48AM 26.8542 -80.3147 127° Southeast  Level FlightAware Approximate
01:49AM 26.8333 -80.2832 77° East  Level FlightAware Approximate
01:50AM 26.8423 -80.2399 261° West  Level Estimated
01:51AM 26.8333 -80.3000 80° East  Level FlightAware Approximate
01:52AM 26.8404 -80.2563 80° East  Level Estimated
01:53AM 26.8475 -80.2125 260° West  Level Estimated
01:54AM 26.8404 -80.2563 80° East  Level Estimated
01:55AM 26.8475 -80.2125 195° South  Level Estimated
01:56AM 26.8333 -80.2167 338° Northwest  Level FlightAware Approximate
01:57AM 26.8701 -80.2333 158° South  Level Estimated
01:58AM 26.8333 -80.2167 338° Northwest  Level FlightAware Approximate
01:59AM 26.8701 -80.2333 158° South  Level Estimated
02:00AM 26.8333 -80.2167 338° Northwest  Level FlightAware Approximate
02:01AM 26.8701 -80.2333 158° South  Level Estimated
02:02AM 26.8333 -80.2167 338° Northwest  Level FlightAware Approximate
02:03AM 26.8701 -80.2333 158° South  Level Estimated
02:04AM 26.8333 -80.2167 338° Northwest  Level FlightAware Approximate
02:05AM 26.8701 -80.2333 158° South  Level Estimated
02:06AM 26.8333 -80.2167 338° Northwest  Level FlightAware Approximate
02:07AM 26.8701 -80.2333 158° South  Level Estimated
02:08AM 26.8333 -80.2167 338° Northwest  Level FlightAware Approximate
02:09AM 26.8701 -80.2333 158° South  Level Estimated
02:10AM 26.8333 -80.2167 338° Northwest  Level FlightAware Approximate
02:11AM 26.8701 -80.2333 338° Northwest  Level Estimated